MSC Vienna — A8CI9 — position and weather

sailwx.info

Track history (hours):
 
Tides and Currents Weather Stations Pressure Air Temp Water Temp Dewpoint Dewpoint Depression Visibility Wind Speed Wind Dir Waves Ship Positions

MSC Vienna

Last reported at 2017-Feb-28 01:07 UTC. Time now 2017-Feb-28 05:40 UTC.
Position N 41°21' E 002°10'.

Length 260.1 m; beam 32.2 m; draft 12 m.

Type: Ship (hazmat cat D). MMSI: 636090654.

Date/timePositionNaut miles runAvg speedWind from/ knotsBaromVisibWave heightAir tempDewpointWater temp
2017-Feb-28 01:07N 41°21' E 002°10'0 0.0
2017-Feb-28 00:32N 41°21' E 002°10'0 0.0
2017-Feb-27 17:31N 41°21' E 002°10'8 3.9
2017-Feb-27 15:33N 41°15' E 002°16'1 1.3
2017-Feb-27 14:28N 41°14' E 002°15'24411.6
2017-Feb-26 17:33N 43°11' E 007°04'1211.9
2017-Feb-26 16:33N 43°18' E 007°17'1212.2
2017-Feb-26 15:33N 43°25' E 007°30'1312.5
2017-Feb-26 14:33N 43°32' E 007°44'4012.7
2017-Feb-26 11:25N 43°58' E 008°25'1112.7
2017-Feb-26 10:33N 44°08' E 008°33'1312.8
2017-Feb-26 09:33N 44°19' E 008°41'7 5.3
2017-Feb-26 08:10N 44°25' E 008°47'0 0.0
2017-Feb-26 07:28N 44°25' E 008°47'0 0.0
2017-Feb-26 06:28N 44°25' E 008°47'0 0.0
2017-Feb-26 05:28N 44°25' E 008°47'0 0.0
2017-Feb-26 04:31N 44°25' E 008°47'0 0.0
2017-Feb-26 03:31N 44°25' E 008°47'0 0.0
2017-Feb-26 02:31N 44°25' E 008°47'0 0.0
2017-Feb-26 01:31N 44°25' E 008°47'0 0.0
2017-Feb-26 00:31N 44°25' E 008°47'0 0.0
2017-Feb-25 23:31N 44°25' E 008°47'0 0.0
2017-Feb-25 22:31N 44°25' E 008°47'0 0.0
2017-Feb-25 21:31N 44°25' E 008°47'0 0.0
2017-Feb-25 20:22N 44°25' E 008°47'0 0.0
2017-Feb-25 19:25N 44°25' E 008°47'0 0.0
2017-Feb-25 18:25N 44°25' E 008°47'0 0.0
2017-Feb-25 17:25N 44°25' E 008°47'0 0.0
2017-Feb-25 16:25N 44°25' E 008°47'0 0.0
2017-Feb-25 15:33N 44°25' E 008°47'3 3.2
2017-Feb-25 14:33N 44°23' E 008°44'5 4.9
2017-Feb-25 13:33N 44°18' E 008°43'2 2.4
2017-Feb-25 12:33N 44°20' E 008°45'6 5.8
2017-Feb-25 11:33N 44°16' E 008°40'2 2.3
2017-Feb-25 10:33N 44°18' E 008°42'2 1.9
2017-Feb-25 09:33N 44°19' E 008°43'2 1.7
2017-Feb-25 08:33N 44°18' E 008°44'1010.3
2017-Feb-25 07:33N 44°07' E 008°45'10 9.6
2017-Feb-25 06:33N 43°58' E 008°47'2 1.7
2017-Feb-25 05:33N 43°60' E 008°47'2 1.8
2017-Feb-25 04:33N 44°01' E 008°46'2 1.8
2017-Feb-25 03:33N 44°03' E 008°45'2 1.8
2017-Feb-25 02:33N 44°05' E 008°44'2 2.1
2017-Feb-25 01:33N 44°07' E 008°43'2 2.3
2017-Feb-25 00:33N 44°09' E 008°43'2 2.5
2017-Feb-24 23:33N 44°11' E 008°43'2 2.4
2017-Feb-24 22:33N 44°14' E 008°43'2 2.2
2017-Feb-24 21:33N 44°16' E 008°43'2 1.7
2017-Feb-24 20:33N 44°18' E 008°44'1 1.2
2017-Feb-24 19:33N 44°19' E 008°44'1 1.5
2017-Feb-24 18:33N 44°18' E 008°46'1312.8
2017-Feb-24 17:33N 44°08' E 008°57'1313.2
2017-Feb-24 16:33N 43°59' E 009°10'1313.1
2017-Feb-24 15:33N 43°50' E 009°23'1313.5
2017-Feb-24 14:33N 43°41' E 009°37'1313.3
2017-Feb-24 13:33N 43°32' E 009°50'1312.7
2017-Feb-24 12:33N 43°30' E 010°08'9 8.8
2017-Feb-24 11:33N 43°34' E 010°18'0 0.5
2017-Feb-24 10:30N 43°35' E 010°18'0 0.0
2017-Feb-24 09:33N 43°35' E 010°18'0 0.0
2017-Feb-24 08:33N 43°35' E 010°18'0 0.0
2017-Feb-24 07:30N 43°35' E 010°18'0 0.0
2017-Feb-24 06:33N 43°35' E 010°18'0 0.0
2017-Feb-24 05:33N 43°35' E 010°18'0 0.0
2017-Feb-24 04:33N 43°35' E 010°18'0 0.0
2017-Feb-24 03:33N 43°35' E 010°18'0 0.0
2017-Feb-24 02:33N 43°35' E 010°18'0 0.0
2017-Feb-24 01:33N 43°35' E 010°18'0 0.0
2017-Feb-24 00:33N 43°35' E 010°18'0 0.0
2017-Feb-23 23:33N 43°35' E 010°18'0 0.0
2017-Feb-23 22:33N 43°35' E 010°18'0 0.0
2017-Feb-23 21:33N 43°35' E 010°18'0 0.0
2017-Feb-23 20:33N 43°35' E 010°18'0 0.0
2017-Feb-23 19:33N 43°35' E 010°18'0 0.0
2017-Feb-23 18:33N 43°35' E 010°18'0 0.0
2017-Feb-23 17:33N 43°35' E 010°18'0 0.0
2017-Feb-23 16:33N 43°35' E 010°18'0 0.0
2017-Feb-23 15:33N 43°35' E 010°18'0 0.0
2017-Feb-23 14:33N 43°35' E 010°18'0 0.0
2017-Feb-23 13:33N 43°35' E 010°18'0 0.0
2017-Feb-23 12:33N 43°35' E 010°18'0 0.0
2017-Feb-23 11:33N 43°35' E 010°18'0 0.0
2017-Feb-23 10:33N 43°35' E 010°18'0 0.0
2017-Feb-23 09:33N 43°35' E 010°18'0 0.1
2017-Feb-23 08:33N 43°34' E 010°18'4 3.6
2017-Feb-23 07:33N 43°31' E 010°16'1 1.4
2017-Feb-23 06:33N 43°30' E 010°16'0 0.1
2017-Feb-23 05:33N 43°30' E 010°16'0 0.0
2017-Feb-23 04:33N 43°30' E 010°16'0 0.0
2017-Feb-23 03:33N 43°30' E 010°16'0 0.0
2017-Feb-23 02:33N 43°30' E 010°16'0 0.0
2017-Feb-23 01:33N 43°30' E 010°16'0 0.0
2017-Feb-23 00:33N 43°30' E 010°16'0 0.0
2017-Feb-22 23:33N 43°30' E 010°16'0 0.0
2017-Feb-22 22:33N 43°30' E 010°16'0 0.0
2017-Feb-22 21:33N 43°30' E 010°16'0 0.0
2017-Feb-22 20:33N 43°30' E 010°16'0 0.0
2017-Feb-22 19:33N 43°30' E 010°16'0 0.0
2017-Feb-22 18:33N 43°30' E 010°16'0 0.0
2017-Feb-22 17:33N 43°30' E 010°16'4 3.7
2017-Feb-22 16:33N 43°28' E 010°12'1313.0
2017-Feb-22 15:33N 43°15' E 010°09'1313.0
2017-Feb-22 14:33N 43°02' E 010°05'24312.1
2017-Feb-21 18:23N 39°01' E 009°23'1113.1
2017-Feb-21 17:33N 39°06' E 009°10'8 7.9
2017-Feb-21 16:33N 39°13' E 009°04'0 0.0
2017-Feb-21 15:33N 39°13' E 009°04'0 0.0
2017-Feb-21 14:33N 39°13' E 009°04'0 0.0
2017-Feb-21 13:33N 39°13' E 009°04'0 0.0
2017-Feb-21 12:33N 39°13' E 009°04'0 0.0
2017-Feb-21 11:33N 39°13' E 009°04'0 0.0
2017-Feb-21 10:33N 39°13' E 009°04'0 0.0
2017-Feb-21 09:33N 39°13' E 009°04'0 0.0
2017-Feb-21 08:33N 39°13' E 009°04'0 0.0
2017-Feb-21 07:33N 39°13' E 009°04'0 0.0
2017-Feb-21 06:33N 39°13' E 009°04'0 0.0
2017-Feb-21 05:33N 39°13' E 009°04'0 0.0
2017-Feb-21 04:33N 39°13' E 009°04'0 0.0
2017-Feb-21 03:30N 39°13' E 009°04'0 0.0
2017-Feb-21 02:33N 39°13' E 009°04'0 0.0
2017-Feb-21 01:33N 39°13' E 009°04'0 0.0
2017-Feb-21 00:33N 39°13' E 009°04'0 0.0
2017-Feb-20 23:33N 39°13' E 009°04'0 0.0
2017-Feb-20 22:33N 39°13' E 009°04'0 0.0
2017-Feb-20 21:33N 39°13' E 009°04'0 0.0
2017-Feb-20 20:33N 39°13' E 009°04'0 0.0
2017-Feb-20 19:33N 39°13' E 009°04'0 0.0
2017-Feb-20 18:33N 39°13' E 009°04'0 0.0
2017-Feb-20 17:33N 39°13' E 009°04'0 0.0
2017-Feb-20 16:33N 39°13' E 009°04'0 0.0
2017-Feb-20 15:33N 39°13' E 009°04'0 0.0
2017-Feb-20 14:33N 39°13' E 009°04'0 0.0
2017-Feb-20 13:33N 39°13' E 009°04'0 0.0
2017-Feb-20 12:33N 39°13' E 009°04'0 0.0
2017-Feb-20 11:33N 39°13' E 009°04'0 0.0
2017-Feb-20 10:33N 39°13' E 009°04'0 0.0
2017-Feb-20 09:33N 39°13' E 009°04'3 2.9
2017-Feb-20 08:32N 39°10' E 009°06'0 0.1
2017-Feb-20 07:31N 39°10' E 009°06'0 0.0
2017-Feb-20 06:31N 39°10' E 009°06'0 0.0
2017-Feb-20 05:28N 39°10' E 009°06'0 0.0
2017-Feb-20 04:31N 39°10' E 009°06'0 0.0
2017-Feb-20 03:31N 39°10' E 009°06'0 0.0
2017-Feb-20 02:31N 39°10' E 009°06'0 0.0
2017-Feb-20 01:31N 39°10' E 009°06'0 0.0
2017-Feb-20 00:31N 39°10' E 009°06'0 0.0
2017-Feb-19 23:31N 39°10' E 009°06'0 0.0
2017-Feb-19 22:31N 39°10' E 009°06'0 0.0
2017-Feb-19 21:31N 39°10' E 009°06'0 0.0
2017-Feb-19 20:31N 39°10' E 009°06'0 0.0
2017-Feb-19 19:31N 39°10' E 009°06'0 0.0
2017-Feb-19 18:31N 39°10' E 009°06'0 0.0
2017-Feb-19 17:31N 39°10' E 009°06'0 0.0
2017-Feb-19 16:31N 39°10' E 009°06'0 0.0
2017-Feb-19 15:33N 39°10' E 009°06'0 0.1
2017-Feb-19 14:30N 39°10' E 009°06'0 0.0
2017-Feb-19 13:33N 39°10' E 009°06'0 0.0
2017-Feb-19 12:33N 39°10' E 009°06'0 0.2
2017-Feb-19 11:33N 39°10' E 009°06'0 0.1
2017-Feb-19 10:33N 39°10' E 009°06'0 0.0
2017-Feb-19 09:24N 39°10' E 009°06'0 0.1
2017-Feb-19 08:33N 39°10' E 009°06'0 0.0
2017-Feb-19 07:33N 39°10' E 009°06'0 0.0
2017-Feb-19 06:33N 39°10' E 009°06'0 0.0
2017-Feb-19 05:33N 39°10' E 009°06'0 0.0
2017-Feb-19 04:33N 39°10' E 009°06'0 0.0
2017-Feb-19 03:33N 39°10' E 009°06'0 0.0
2017-Feb-19 02:33N 39°10' E 009°06'0 0.0
2017-Feb-19 01:33N 39°10' E 009°06'0 0.1
2017-Feb-19 00:33N 39°10' E 009°06'0 0.0
2017-Feb-18 23:33N 39°10' E 009°06'0 0.0
2017-Feb-18 22:33N 39°10' E 009°06'0 0.0
2017-Feb-18 21:33N 39°10' E 009°06'0 0.0
2017-Feb-18 20:30N 39°10' E 009°06'0 0.0
2017-Feb-18 19:33N 39°10' E 009°06'7 7.4
2017-Feb-18 18:33N 39°05' E 009°13'19713.0
2017-Feb-18 03:27N 38°30' E 013°21'1112.4
2017-Feb-18 02:33N 38°28' E 013°35'1211.6
2017-Feb-18 01:33N 38°26' E 013°50'  
Track history (hours):
 
Tides and Currents Weather Stations Pressure Air Temp Water Temp Dewpoint Dewpoint Depression Visibility Wind Speed Wind Dir Waves Ship Positions

MSC Vienna

Last reported at 2017-Feb-28 01:07 UTC. Time now 2017-Feb-28 05:40 UTC.
Position N 41°21' E 002°10'.

Length 260.1 m; beam 32.2 m; draft 12 m.

Type: Ship (hazmat cat D). MMSI: 636090654.

Date/timePositionNaut miles runAvg speedWind from/ knotsBaromVisibWave heightAir tempDewpointWater temp
2017-Feb-28 01:07N 41°21' E 002°10'0 0.0
2017-Feb-28 00:32N 41°21' E 002°10'0 0.0
2017-Feb-27 17:31N 41°21' E 002°10'8 3.9
2017-Feb-27 15:33N 41°15' E 002°16'1 1.3
2017-Feb-27 14:28N 41°14' E 002°15'24411.6
2017-Feb-26 17:33N 43°11' E 007°04'1211.9
2017-Feb-26 16:33N 43°18' E 007°17'1212.2
2017-Feb-26 15:33N 43°25' E 007°30'1312.5
2017-Feb-26 14:33N 43°32' E 007°44'4012.7
2017-Feb-26 11:25N 43°58' E 008°25'1112.7
2017-Feb-26 10:33N 44°08' E 008°33'1312.8
2017-Feb-26 09:33N 44°19' E 008°41'7 5.3
2017-Feb-26 08:10N 44°25' E 008°47'0 0.0
2017-Feb-26 07:28N 44°25' E 008°47'0 0.0
2017-Feb-26 06:28N 44°25' E 008°47'0 0.0
2017-Feb-26 05:28N 44°25' E 008°47'0 0.0
2017-Feb-26 04:31N 44°25' E 008°47'0 0.0
2017-Feb-26 03:31N 44°25' E 008°47'0 0.0
2017-Feb-26 02:31N 44°25' E 008°47'0 0.0
2017-Feb-26 01:31N 44°25' E 008°47'0 0.0
2017-Feb-26 00:31N 44°25' E 008°47'0 0.0
2017-Feb-25 23:31N 44°25' E 008°47'0 0.0
2017-Feb-25 22:31N 44°25' E 008°47'0 0.0
2017-Feb-25 21:31N 44°25' E 008°47'0 0.0
2017-Feb-25 20:22N 44°25' E 008°47'0 0.0
2017-Feb-25 19:25N 44°25' E 008°47'0 0.0
2017-Feb-25 18:25N 44°25' E 008°47'0 0.0
2017-Feb-25 17:25N 44°25' E 008°47'0 0.0
2017-Feb-25 16:25N 44°25' E 008°47'0 0.0
2017-Feb-25 15:33N 44°25' E 008°47'3 3.2
2017-Feb-25 14:33N 44°23' E 008°44'5 4.9
2017-Feb-25 13:33N 44°18' E 008°43'2 2.4
2017-Feb-25 12:33N 44°20' E 008°45'6 5.8
2017-Feb-25 11:33N 44°16' E 008°40'2 2.3
2017-Feb-25 10:33N 44°18' E 008°42'2 1.9
2017-Feb-25 09:33N 44°19' E 008°43'2 1.7
2017-Feb-25 08:33N 44°18' E 008°44'1010.3
2017-Feb-25 07:33N 44°07' E 008°45'10 9.6
2017-Feb-25 06:33N 43°58' E 008°47'2 1.7
2017-Feb-25 05:33N 43°60' E 008°47'2 1.8
2017-Feb-25 04:33N 44°01' E 008°46'2 1.8
2017-Feb-25 03:33N 44°03' E 008°45'2 1.8
2017-Feb-25 02:33N 44°05' E 008°44'2 2.1
2017-Feb-25 01:33N 44°07' E 008°43'2 2.3
2017-Feb-25 00:33N 44°09' E 008°43'2 2.5
2017-Feb-24 23:33N 44°11' E 008°43'2 2.4
2017-Feb-24 22:33N 44°14' E 008°43'2 2.2
2017-Feb-24 21:33N 44°16' E 008°43'2 1.7
2017-Feb-24 20:33N 44°18' E 008°44'1 1.2
2017-Feb-24 19:33N 44°19' E 008°44'1 1.5
2017-Feb-24 18:33N 44°18' E 008°46'1312.8
2017-Feb-24 17:33N 44°08' E 008°57'1313.2
2017-Feb-24 16:33N 43°59' E 009°10'1313.1
2017-Feb-24 15:33N 43°50' E 009°23'1313.5
2017-Feb-24 14:33N 43°41' E 009°37'1313.3
2017-Feb-24 13:33N 43°32' E 009°50'1312.7
2017-Feb-24 12:33N 43°30' E 010°08'9 8.8
2017-Feb-24 11:33N 43°34' E 010°18'0 0.5
2017-Feb-24 10:30N 43°35' E 010°18'0 0.0
2017-Feb-24 09:33N 43°35' E 010°18'0 0.0
2017-Feb-24 08:33N 43°35' E 010°18'0 0.0
2017-Feb-24 07:30N 43°35' E 010°18'0 0.0
2017-Feb-24 06:33N 43°35' E 010°18'0 0.0
2017-Feb-24 05:33N 43°35' E 010°18'0 0.0
2017-Feb-24 04:33N 43°35' E 010°18'0 0.0
2017-Feb-24 03:33N 43°35' E 010°18'0 0.0
2017-Feb-24 02:33N 43°35' E 010°18'0 0.0
2017-Feb-24 01:33N 43°35' E 010°18'0 0.0
2017-Feb-24 00:33N 43°35' E 010°18'0 0.0
2017-Feb-23 23:33N 43°35' E 010°18'0 0.0
2017-Feb-23 22:33N 43°35' E 010°18'0 0.0
2017-Feb-23 21:33N 43°35' E 010°18'0 0.0
2017-Feb-23 20:33N 43°35' E 010°18'0 0.0
2017-Feb-23 19:33N 43°35' E 010°18'0 0.0
2017-Feb-23 18:33N 43°35' E 010°18'0 0.0
2017-Feb-23 17:33N 43°35' E 010°18'0 0.0
2017-Feb-23 16:33N 43°35' E 010°18'0 0.0
2017-Feb-23 15:33N 43°35' E 010°18'0 0.0
2017-Feb-23 14:33N 43°35' E 010°18'0 0.0
2017-Feb-23 13:33N 43°35' E 010°18'0 0.0
2017-Feb-23 12:33N 43°35' E 010°18'0 0.0
2017-Feb-23 11:33N 43°35' E 010°18'0 0.0
2017-Feb-23 10:33N 43°35' E 010°18'0 0.0
2017-Feb-23 09:33N 43°35' E 010°18'0 0.1
2017-Feb-23 08:33N 43°34' E 010°18'4 3.6
2017-Feb-23 07:33N 43°31' E 010°16'1 1.4
2017-Feb-23 06:33N 43°30' E 010°16'0 0.1
2017-Feb-23 05:33N 43°30' E 010°16'0 0.0
2017-Feb-23 04:33N 43°30' E 010°16'0 0.0
2017-Feb-23 03:33N 43°30' E 010°16'0 0.0
2017-Feb-23 02:33N 43°30' E 010°16'0 0.0
2017-Feb-23 01:33N 43°30' E 010°16'0 0.0
2017-Feb-23 00:33N 43°30' E 010°16'0 0.0
2017-Feb-22 23:33N 43°30' E 010°16'0 0.0
2017-Feb-22 22:33N 43°30' E 010°16'0 0.0
2017-Feb-22 21:33N 43°30' E 010°16'0 0.0
2017-Feb-22 20:33N 43°30' E 010°16'0 0.0
2017-Feb-22 19:33N 43°30' E 010°16'0 0.0
2017-Feb-22 18:33N 43°30' E 010°16'0 0.0
2017-Feb-22 17:33N 43°30' E 010°16'4 3.7
2017-Feb-22 16:33N 43°28' E 010°12'1313.0
2017-Feb-22 15:33N 43°15' E 010°09'1313.0
2017-Feb-22 14:33N 43°02' E 010°05'24312.1
2017-Feb-21 18:23N 39°01' E 009°23'1113.1
2017-Feb-21 17:33N 39°06' E 009°10'8 7.9
2017-Feb-21 16:33N 39°13' E 009°04'0 0.0
2017-Feb-21 15:33N 39°13' E 009°04'0 0.0
2017-Feb-21 14:33N 39°13' E 009°04'0 0.0
2017-Feb-21 13:33N 39°13' E 009°04'0 0.0
2017-Feb-21 12:33N 39°13' E 009°04'0 0.0
2017-Feb-21 11:33N 39°13' E 009°04'0 0.0
2017-Feb-21 10:33N 39°13' E 009°04'0 0.0
2017-Feb-21 09:33N 39°13' E 009°04'0 0.0
2017-Feb-21 08:33N 39°13' E 009°04'0 0.0
2017-Feb-21 07:33N 39°13' E 009°04'0 0.0
2017-Feb-21 06:33N 39°13' E 009°04'0 0.0
2017-Feb-21 05:33N 39°13' E 009°04'0 0.0
2017-Feb-21 04:33N 39°13' E 009°04'0 0.0
2017-Feb-21 03:30N 39°13' E 009°04'0 0.0
2017-Feb-21 02:33N 39°13' E 009°04'0 0.0
2017-Feb-21 01:33N 39°13' E 009°04'0 0.0
2017-Feb-21 00:33N 39°13' E 009°04'0 0.0
2017-Feb-20 23:33N 39°13' E 009°04'0 0.0
2017-Feb-20 22:33N 39°13' E 009°04'0 0.0
2017-Feb-20 21:33N 39°13' E 009°04'0 0.0
2017-Feb-20 20:33N 39°13' E 009°04'0 0.0
2017-Feb-20 19:33N 39°13' E 009°04'0 0.0
2017-Feb-20 18:33N 39°13' E 009°04'0 0.0
2017-Feb-20 17:33N 39°13' E 009°04'0 0.0
2017-Feb-20 16:33N 39°13' E 009°04'0 0.0
2017-Feb-20 15:33N 39°13' E 009°04'0 0.0
2017-Feb-20 14:33N 39°13' E 009°04'0 0.0
2017-Feb-20 13:33N 39°13' E 009°04'0 0.0
2017-Feb-20 12:33N 39°13' E 009°04'0 0.0
2017-Feb-20 11:33N 39°13' E 009°04'0 0.0
2017-Feb-20 10:33N 39°13' E 009°04'0 0.0
2017-Feb-20 09:33N 39°13' E 009°04'3 2.9
2017-Feb-20 08:32N 39°10' E 009°06'0 0.1
2017-Feb-20 07:31N 39°10' E 009°06'0 0.0
2017-Feb-20 06:31N 39°10' E 009°06'0 0.0
2017-Feb-20 05:28N 39°10' E 009°06'0 0.0
2017-Feb-20 04:31N 39°10' E 009°06'0 0.0
2017-Feb-20 03:31N 39°10' E 009°06'0 0.0
2017-Feb-20 02:31N 39°10' E 009°06'0 0.0
2017-Feb-20 01:31N 39°10' E 009°06'0 0.0
2017-Feb-20 00:31N 39°10' E 009°06'0 0.0
2017-Feb-19 23:31N 39°10' E 009°06'0 0.0
2017-Feb-19 22:31N 39°10' E 009°06'0 0.0
2017-Feb-19 21:31N 39°10' E 009°06'0 0.0
2017-Feb-19 20:31N 39°10' E 009°06'0 0.0
2017-Feb-19 19:31N 39°10' E 009°06'0 0.0
2017-Feb-19 18:31N 39°10' E 009°06'0 0.0
2017-Feb-19 17:31N 39°10' E 009°06'0 0.0
2017-Feb-19 16:31N 39°10' E 009°06'0 0.0
2017-Feb-19 15:33N 39°10' E 009°06'0 0.1
2017-Feb-19 14:30N 39°10' E 009°06'0 0.0
2017-Feb-19 13:33N 39°10' E 009°06'0 0.0
2017-Feb-19 12:33N 39°10' E 009°06'0 0.2
2017-Feb-19 11:33N 39°10' E 009°06'0 0.1
2017-Feb-19 10:33N 39°10' E 009°06'0 0.0
2017-Feb-19 09:24N 39°10' E 009°06'0 0.1
2017-Feb-19 08:33N 39°10' E 009°06'0 0.0
2017-Feb-19 07:33N 39°10' E 009°06'0 0.0
2017-Feb-19 06:33N 39°10' E 009°06'0 0.0
2017-Feb-19 05:33N 39°10' E 009°06'0 0.0
2017-Feb-19 04:33N 39°10' E 009°06'0 0.0
2017-Feb-19 03:33N 39°10' E 009°06'0 0.0
2017-Feb-19 02:33N 39°10' E 009°06'0 0.0
2017-Feb-19 01:33N 39°10' E 009°06'0 0.1
2017-Feb-19 00:33N 39°10' E 009°06'0 0.0
2017-Feb-18 23:33N 39°10' E 009°06'0 0.0
2017-Feb-18 22:33N 39°10' E 009°06'0 0.0
2017-Feb-18 21:33N 39°10' E 009°06'0 0.0
2017-Feb-18 20:30N 39°10' E 009°06'0 0.0
2017-Feb-18 19:33N 39°10' E 009°06'7 7.4
2017-Feb-18 18:33N 39°05' E 009°13'19713.0
2017-Feb-18 03:27N 38°30' E 013°21'1112.4
2017-Feb-18 02:33N 38°28' E 013°35'1211.6
2017-Feb-18 01:33N 38°26' E 013°50'  

Dump ship's entire track history